createdAt,value
2019-01-18T00:00:09.676Z,2.00
2019-01-18T00:01:08.027Z,1.10
2019-01-18T00:02:07.807Z,1.80
2019-01-18T00:03:08.218Z,2.40
2019-01-18T00:04:07.783Z,1.40
2019-01-18T00:05:07.778Z,1.90
2019-01-18T00:06:07.770Z,1.60
2019-01-18T00:07:07.802Z,0.90
2019-01-18T00:08:07.756Z,1.60
2019-01-18T00:09:07.756Z,1.00
2019-01-18T00:10:07.721Z,2.00
2019-01-18T00:11:07.726Z,1.30
2019-01-18T00:12:07.698Z,2.50
2019-01-18T00:13:07.693Z,1.30
2019-01-18T00:14:07.719Z,1.90
2019-01-18T00:15:07.668Z,1.60
2019-01-18T00:16:07.674Z,1.00
2019-01-18T00:17:07.648Z,1.30
2019-01-18T00:18:07.630Z,1.20
2019-01-18T00:19:07.627Z,1.40
2019-01-18T00:20:07.655Z,1.60
2019-01-18T00:21:07.631Z,1.50
2019-01-18T00:22:07.588Z,0.90
2019-01-18T00:23:07.599Z,2.00
2019-01-18T00:24:07.570Z,1.70
2019-01-18T00:25:07.563Z,1.30
2019-01-18T00:26:07.566Z,1.00
2019-01-18T00:27:08.541Z,1.70
2019-01-18T00:28:07.529Z,1.90
2019-01-18T00:29:07.521Z,1.40
2019-01-18T00:30:07.497Z,0.90
2019-01-18T00:31:07.508Z,2.00
2019-01-18T00:32:07.902Z,1.40
2019-01-18T00:33:07.472Z,2.50
2019-01-18T00:34:07.456Z,2.10
2019-01-18T00:35:07.583Z,1.80
2019-01-18T00:36:07.505Z,1.20
2019-01-18T00:37:07.440Z,1.00
2019-01-18T00:38:07.444Z,1.70
2019-01-18T00:39:07.455Z,1.30
2019-01-18T00:40:07.406Z,1.90
2019-01-18T00:41:07.399Z,1.20
2019-01-18T00:42:07.378Z,1.60
2019-01-18T00:43:07.357Z,1.10
2019-01-18T00:44:07.352Z,1.00
2019-01-18T00:45:07.347Z,1.30
2019-01-18T00:46:07.364Z,0.70
2019-01-18T00:47:07.329Z,1.40
2019-01-18T00:48:07.345Z,1.20
2019-01-18T00:49:07.297Z,0.90
2019-01-18T00:50:07.375Z,1.20
2019-01-18T00:51:07.304Z,1.00
2019-01-18T00:52:07.291Z,2.00
2019-01-18T00:53:07.249Z,1.60
2019-01-18T00:54:07.250Z,2.10
2019-01-18T00:55:07.230Z,1.20
2019-01-18T00:56:07.238Z,1.60
2019-01-18T00:57:07.219Z,1.90
2019-01-18T00:58:07.198Z,2.40
2019-01-18T00:59:07.187Z,2.20
2019-01-18T01:00:07.182Z,1.00
2019-01-18T01:01:07.239Z,1.30
2019-01-18T01:02:07.154Z,1.20
2019-01-18T01:03:07.145Z,2.10
2019-01-18T01:04:07.148Z,1.70
2019-01-18T01:05:07.122Z,1.80
2019-01-18T01:06:07.122Z,1.70
2019-01-18T01:07:07.104Z,2.40
2019-01-18T01:08:07.096Z,1.60
2019-01-18T01:09:07.092Z,0.90
2019-01-18T01:10:07.078Z,1.50
2019-01-18T01:11:07.101Z,1.10
2019-01-18T01:12:07.053Z,2.00
2019-01-18T01:13:07.079Z,1.60
2019-01-18T01:14:07.022Z,1.50
2019-01-18T01:15:07.400Z,1.80
2019-01-18T01:16:07.011Z,0.80
2019-01-18T01:17:06.992Z,1.00
2019-01-18T01:18:07.018Z,1.90
2019-01-18T01:19:06.964Z,0.90
2019-01-18T01:20:06.957Z,1.80
2019-01-18T01:21:06.979Z,0.90
2019-01-18T01:22:06.955Z,1.20
2019-01-18T01:23:06.932Z,2.00
2019-01-18T01:24:06.941Z,1.40
2019-01-18T01:25:06.902Z,1.40
2019-01-18T01:26:06.884Z,2.20
2019-01-18T01:27:06.909Z,0.80
2019-01-18T01:28:06.865Z,1.00
2019-01-18T01:29:06.889Z,1.40
2019-01-18T01:30:06.949Z,1.00
2019-01-18T01:31:06.847Z,0.70
2019-01-18T01:32:06.856Z,1.70
2019-01-18T01:33:06.817Z,1.20
2019-01-18T01:34:06.805Z,2.10
2019-01-18T01:35:07.357Z,1.90
2019-01-18T01:36:06.776Z,2.10
2019-01-18T01:37:06.783Z,1.30
2019-01-18T01:38:06.762Z,0.90
2019-01-18T01:39:06.782Z,1.70
2019-01-18T01:40:06.736Z,1.70
2019-01-18T01:41:06.737Z,1.50
2019-01-18T01:42:06.730Z,1.00
2019-01-18T01:43:07.643Z,1.00
2019-01-18T01:44:06.689Z,1.30
2019-01-18T01:45:07.607Z,1.00
2019-01-18T01:46:06.668Z,1.00
2019-01-18T01:47:06.671Z,1.90
2019-01-18T01:48:06.650Z,1.50
2019-01-18T01:49:06.711Z,1.00
2019-01-18T01:50:06.631Z,1.00
2019-01-18T01:51:06.635Z,1.40
2019-01-18T01:52:06.618Z,1.60
2019-01-18T01:53:06.654Z,0.90
2019-01-18T01:54:06.591Z,0.80
2019-01-18T01:55:06.580Z,1.70
2019-01-18T01:56:06.568Z,1.70
2019-01-18T01:57:06.575Z,1.70
2019-01-18T01:58:06.548Z,1.20
2019-01-18T01:59:06.645Z,1.30
2019-01-18T02:00:06.529Z,1.70
2019-01-18T02:01:06.501Z,1.80
2019-01-18T02:02:06.555Z,1.00
2019-01-18T02:03:06.497Z,1.00
2019-01-18T02:04:06.516Z,1.80
2019-01-18T02:05:06.468Z,1.60
2019-01-18T02:06:06.456Z,1.10
2019-01-18T02:07:06.451Z,1.20
2019-01-18T02:08:06.431Z,1.80
2019-01-18T02:09:06.429Z,1.20
2019-01-18T02:10:06.404Z,1.30
2019-01-18T02:11:06.394Z,1.40
2019-01-18T02:12:06.407Z,1.50
2019-01-18T02:13:06.438Z,0.90
2019-01-18T02:14:06.379Z,1.30
2019-01-18T02:15:06.350Z,1.40
2019-01-18T02:16:06.338Z,1.30
2019-01-18T02:17:06.344Z,1.20
2019-01-18T02:18:06.337Z,1.20
2019-01-18T02:19:06.304Z,1.20
2019-01-18T02:20:06.293Z,0.90
2019-01-18T02:21:06.296Z,1.20
2019-01-18T02:22:06.302Z,1.10
2019-01-18T02:23:06.277Z,1.40
2019-01-18T02:24:06.252Z,0.80
2019-01-18T02:25:06.312Z,1.10
2019-01-18T02:26:06.239Z,1.10
2019-01-18T02:27:06.278Z,1.40
2019-01-18T02:28:06.273Z,1.20
2019-01-18T02:29:06.198Z,1.20
2019-01-18T02:30:06.187Z,1.30
2019-01-18T02:31:06.173Z,1.40
2019-01-18T02:32:06.186Z,1.30
2019-01-18T02:33:06.153Z,2.10
2019-01-18T02:34:06.152Z,1.20
2019-01-18T02:35:06.127Z,1.40
2019-01-18T02:36:06.116Z,1.50
2019-01-18T02:37:06.119Z,1.60
2019-01-18T02:38:06.103Z,0.90
2019-01-18T02:39:06.084Z,1.20
2019-01-18T02:40:06.072Z,1.50
2019-01-18T02:41:06.070Z,1.30
2019-01-18T02:42:06.068Z,0.80
2019-01-18T02:43:06.046Z,1.10
2019-01-18T02:44:06.121Z,1.20
2019-01-18T02:45:06.018Z,2.10
2019-01-18T02:46:06.020Z,1.40
2019-01-18T02:47:06.016Z,1.60
2019-01-18T02:48:06.014Z,0.90
2019-01-18T02:49:05.973Z,0.80
2019-01-18T02:50:05.964Z,1.70
2019-01-18T02:51:05.950Z,1.20
2019-01-18T02:52:05.949Z,1.90
2019-01-18T02:53:05.979Z,1.40
2019-01-18T02:54:05.931Z,1.00
2019-01-18T02:55:05.917Z,1.90
2019-01-18T02:56:05.895Z,0.80
2019-01-18T02:57:05.915Z,0.90
2019-01-18T02:58:05.899Z,1.70
2019-01-18T02:59:05.871Z,2.00
2019-01-18T03:00:05.918Z,1.20
2019-01-18T03:01:05.859Z,1.50
2019-01-18T03:02:05.841Z,1.30
2019-01-18T03:03:05.855Z,1.50
2019-01-18T03:04:05.826Z,1.80
2019-01-18T03:05:05.799Z,1.30
2019-01-18T03:06:05.874Z,1.30
2019-01-18T03:07:05.802Z,1.40
2019-01-18T03:08:05.785Z,1.30
2019-01-18T03:09:05.757Z,1.40
2019-01-18T03:10:05.783Z,1.20
2019-01-18T03:11:05.740Z,1.30
2019-01-18T03:12:05.720Z,1.30
2019-01-18T03:13:05.755Z,1.10
2019-01-18T03:14:05.698Z,2.00
2019-01-18T03:15:05.697Z,1.60
2019-01-18T03:16:05.675Z,1.00
2019-01-18T03:17:05.677Z,1.80
2019-01-18T03:18:05.719Z,1.50
2019-01-18T03:19:05.645Z,0.80
2019-01-18T03:20:05.635Z,1.70
2019-01-18T03:21:05.629Z,1.50
2019-01-18T03:22:05.619Z,1.10
2019-01-18T03:23:05.612Z,1.00
2019-01-18T03:24:05.592Z,1.00
2019-01-18T03:25:05.578Z,1.20
2019-01-18T03:26:05.574Z,1.00
2019-01-18T03:27:05.570Z,1.00
2019-01-18T03:28:05.559Z,1.20
2019-01-18T03:29:05.535Z,1.50
2019-01-18T03:30:17.488Z,1.10
2019-01-18T03:31:05.510Z,2.00
2019-01-18T03:32:05.501Z,1.10
2019-01-18T03:33:05.511Z,1.50
2019-01-18T03:34:05.478Z,1.10
2019-01-18T03:35:05.542Z,1.30
2019-01-18T03:36:05.470Z,1.00
2019-01-18T03:37:05.442Z,1.10
2019-01-18T03:38:05.448Z,1.10
2019-01-18T03:39:05.426Z,1.60
2019-01-18T03:40:05.415Z,1.10
2019-01-18T03:41:05.403Z,1.20
2019-01-18T03:42:05.387Z,1.40
2019-01-18T03:43:05.402Z,1.60
2019-01-18T03:44:05.375Z,1.50
2019-01-18T03:45:05.353Z,1.40
2019-01-18T03:46:05.341Z,1.30
2019-01-18T03:47:05.335Z,1.90
2019-01-18T03:48:05.381Z,1.40
2019-01-18T03:49:05.655Z,1.30
2019-01-18T03:50:05.316Z,1.00
2019-01-18T03:51:05.284Z,1.10
2019-01-18T03:52:06.530Z,1.30
2019-01-18T03:53:05.303Z,1.20
2019-01-18T03:54:05.283Z,1.40
2019-01-18T03:55:05.244Z,1.20
2019-01-18T03:56:05.232Z,1.70
2019-01-18T03:57:05.280Z,1.30
2019-01-18T03:58:05.224Z,2.10
2019-01-18T03:59:05.207Z,0.80
2019-01-18T04:00:05.546Z,1.00
2019-01-18T04:01:05.177Z,1.30
2019-01-18T04:02:05.175Z,1.50
2019-01-18T04:03:05.207Z,1.40
2019-01-18T04:04:05.159Z,1.20
2019-01-18T04:05:05.138Z,1.60
2019-01-18T04:06:05.130Z,1.60
2019-01-18T04:07:05.114Z,1.00
2019-01-18T04:08:05.120Z,2.10
2019-01-18T04:09:05.139Z,0.80
2019-01-18T04:10:05.091Z,2.40
2019-01-18T04:11:05.071Z,1.20
2019-01-18T04:12:05.058Z,2.10
2019-01-18T04:13:05.088Z,1.40
2019-01-18T04:14:05.037Z,1.00
2019-01-18T04:15:05.024Z,1.60
2019-01-18T04:16:05.012Z,1.50
2019-01-18T04:17:05.006Z,1.50
2019-01-18T04:18:05.070Z,1.30
2019-01-18T04:19:04.986Z,1.20
2019-01-18T04:20:04.976Z,1.40
2019-01-18T04:21:05.001Z,1.70
2019-01-18T04:22:04.943Z,1.90
2019-01-18T04:23:04.933Z,1.40
2019-01-18T04:24:04.937Z,1.10
2019-01-18T04:25:04.943Z,1.40
2019-01-18T04:26:04.903Z,1.40
2019-01-18T04:27:04.889Z,1.80
2019-01-18T04:28:04.896Z,1.60
2019-01-18T04:29:04.898Z,1.20
2019-01-18T04:30:04.886Z,1.70
2019-01-18T04:31:05.018Z,0.90
2019-01-18T04:32:04.833Z,1.40
2019-01-18T04:33:04.825Z,1.50
2019-01-18T04:34:04.832Z,1.80
2019-01-18T04:35:04.811Z,1.30
2019-01-18T04:36:04.824Z,1.70
2019-01-18T04:37:04.785Z,1.30
2019-01-18T04:38:04.768Z,1.50
2019-01-18T04:39:04.791Z,1.80
2019-01-18T04:40:04.769Z,2.10
2019-01-18T04:41:04.734Z,1.30
2019-01-18T04:42:04.737Z,1.80
2019-01-18T04:43:04.724Z,1.90
2019-01-18T04:44:04.723Z,1.40
2019-01-18T04:45:04.725Z,1.70
2019-01-18T04:46:04.686Z,1.90
2019-01-18T04:47:04.669Z,1.20
2019-01-18T04:48:04.662Z,1.60
2019-01-18T04:49:04.663Z,1.60
2019-01-18T04:50:04.658Z,1.20
2019-01-18T04:51:04.638Z,1.40
2019-01-18T04:52:04.616Z,1.50
2019-01-18T04:53:04.602Z,1.10
2019-01-18T04:54:04.609Z,2.30
2019-01-18T04:55:04.590Z,0.70
2019-01-18T04:56:04.572Z,1.30
2019-01-18T04:57:04.594Z,1.20
2019-01-18T04:58:04.553Z,2.20
2019-01-18T04:59:04.561Z,0.70
2019-01-18T05:00:04.543Z,1.40
2019-01-18T05:01:04.619Z,1.00
2019-01-18T05:02:04.614Z,1.30
2019-01-18T05:03:04.493Z,1.50
2019-01-18T05:04:04.609Z,1.10
2019-01-18T05:05:04.488Z,1.80
2019-01-18T05:06:04.505Z,1.40
2019-01-18T05:07:04.612Z,1.20
2019-01-18T05:08:04.443Z,1.10
2019-01-18T05:09:04.468Z,1.50
2019-01-18T05:10:04.442Z,2.10
2019-01-18T05:11:04.427Z,1.20
2019-01-18T05:12:04.395Z,1.30
2019-01-18T05:13:04.433Z,1.50
2019-01-18T05:14:04.394Z,1.70
2019-01-18T05:15:04.518Z,1.60
2019-01-18T05:16:04.426Z,1.00
2019-01-18T05:17:04.342Z,1.50
2019-01-18T05:18:04.342Z,1.50
2019-01-18T05:19:04.385Z,1.40
2019-01-18T05:20:04.339Z,1.90
2019-01-18T05:21:04.297Z,1.90
2019-01-18T05:22:04.377Z,2.20
2019-01-18T05:23:04.303Z,1.30
2019-01-18T05:24:04.285Z,2.00
2019-01-18T05:25:04.335Z,1.80
2019-01-18T05:26:04.251Z,1.10
2019-01-18T05:27:04.358Z,1.20
2019-01-18T05:28:04.234Z,1.50
2019-01-18T05:29:04.685Z,1.20
2019-01-18T05:30:04.222Z,1.30
2019-01-18T05:31:04.214Z,1.30
2019-01-18T05:32:04.225Z,1.30
2019-01-18T05:33:04.175Z,1.10
2019-01-18T05:34:04.180Z,1.60
2019-01-18T05:35:04.153Z,2.10
2019-01-18T05:36:04.211Z,1.30
2019-01-18T05:37:04.137Z,2.20
2019-01-18T05:38:04.123Z,1.80
2019-01-18T05:39:04.127Z,1.30
2019-01-18T05:40:04.098Z,2.10
2019-01-18T05:41:04.091Z,1.60
2019-01-18T05:42:04.234Z,1.20
2019-01-18T05:43:04.100Z,1.60
2019-01-18T05:44:04.071Z,1.50
2019-01-18T05:45:04.040Z,2.00
2019-01-18T05:46:04.043Z,1.20
2019-01-18T05:47:04.024Z,2.20
2019-01-18T05:48:04.017Z,1.30
2019-01-18T05:49:04.010Z,2.00
2019-01-18T05:50:03.988Z,1.80
2019-01-18T05:51:03.988Z,1.30
2019-01-18T05:52:03.984Z,1.90
2019-01-18T05:53:03.975Z,2.30
2019-01-18T05:54:03.958Z,1.70
2019-01-18T05:55:03.936Z,1.90
2019-01-18T05:56:03.940Z,2.90
2019-01-18T05:57:03.917Z,2.40
2019-01-18T05:58:03.977Z,1.70
2019-01-18T05:59:03.926Z,1.30
2019-01-18T06:00:03.894Z,1.80
2019-01-18T06:01:03.889Z,1.60
2019-01-18T06:02:03.891Z,2.10
2019-01-18T06:03:03.876Z,1.50
2019-01-18T06:04:03.842Z,1.40
2019-01-18T06:05:03.859Z,1.50
2019-01-18T06:06:03.823Z,1.50
2019-01-18T06:07:03.849Z,1.00
2019-01-18T06:08:03.795Z,1.90
2019-01-18T06:09:03.852Z,1.10
2019-01-18T06:10:03.796Z,1.70
2019-01-18T06:11:03.763Z,1.60
2019-01-18T06:12:03.752Z,1.40
2019-01-18T06:13:03.843Z,2.10
2019-01-18T06:14:03.730Z,1.60
2019-01-18T06:15:03.743Z,1.30
2019-01-18T06:16:03.716Z,1.20
2019-01-18T06:17:03.706Z,1.50
2019-01-18T06:18:03.691Z,1.40
2019-01-18T06:19:03.674Z,1.80
2019-01-18T06:20:03.701Z,2.70
2019-01-18T06:21:03.659Z,1.80
2019-01-18T06:22:03.663Z,2.60
2019-01-18T06:23:03.692Z,3.40
2019-01-18T06:24:03.629Z,1.80
2019-01-18T06:25:03.630Z,2.40
2019-01-18T06:26:03.604Z,2.10
2019-01-18T06:27:03.589Z,1.40
2019-01-18T06:28:03.578Z,1.80
2019-01-18T06:29:03.585Z,4.30
2019-01-18T06:30:03.604Z,1.70
2019-01-18T06:31:03.547Z,2.70
2019-01-18T06:32:03.550Z,4.10
2019-01-18T06:33:03.536Z,2.00
2019-01-18T06:34:03.552Z,1.20
2019-01-18T06:35:03.533Z,2.20
2019-01-18T06:36:03.608Z,2.90
2019-01-18T06:37:03.518Z,2.40
2019-01-18T06:38:04.594Z,1.60
2019-01-18T06:39:03.471Z,3.10
2019-01-18T06:40:03.513Z,2.10
2019-01-18T06:41:03.446Z,2.10
2019-01-18T06:42:03.438Z,2.80
2019-01-18T06:43:03.458Z,2.00
2019-01-18T06:44:03.577Z,2.80
2019-01-18T06:45:03.460Z,4.90
2019-01-18T06:46:03.390Z,9.10
2019-01-18T06:47:03.389Z,3.80
2019-01-18T06:48:03.373Z,5.20
2019-01-18T06:49:03.351Z,2.50
2019-01-18T06:50:03.401Z,5.40
2019-01-18T06:51:03.355Z,5.20
2019-01-18T06:52:03.363Z,4.60
2019-01-18T06:53:03.327Z,5.40
2019-01-18T06:54:03.437Z,4.50
2019-01-18T06:55:03.302Z,5.20
2019-01-18T06:56:03.294Z,6.90
2019-01-18T06:57:03.270Z,8.30
2019-01-18T06:58:03.270Z,5.60
2019-01-18T06:59:03.254Z,6.60
2019-01-18T07:00:03.255Z,6.70
2019-01-18T07:01:08.435Z,7.10
2019-01-18T07:02:03.262Z,7.20
2019-01-18T07:03:03.433Z,4.80
2019-01-18T07:04:03.197Z,5.30
2019-01-18T07:05:03.418Z,11.30
2019-01-18T07:06:03.202Z,7.10
2019-01-18T07:07:03.177Z,6.40
2019-01-18T07:08:03.158Z,10.10
2019-01-18T07:09:03.223Z,7.30
2019-01-18T07:10:03.148Z,7.90
2019-01-18T07:11:03.118Z,9.80
2019-01-18T07:12:03.148Z,6.20
2019-01-18T07:13:03.182Z,13.80
2019-01-18T07:14:03.088Z,6.00
2019-01-18T07:15:03.135Z,10.60
2019-01-18T07:16:03.111Z,5.10
2019-01-18T07:17:03.052Z,5.40
2019-01-18T07:18:03.056Z,6.30
2019-01-18T07:19:03.046Z,4.10
2019-01-18T07:20:03.026Z,8.00
2019-01-18T07:21:03.025Z,5.90
2019-01-18T07:22:03.067Z,7.10
2019-01-18T07:23:02.990Z,2.70
2019-01-18T07:24:02.995Z,8.10
2019-01-18T07:25:03.150Z,11.30
2019-01-18T07:26:02.962Z,4.90
2019-01-18T07:27:02.990Z,7.70
2019-01-18T07:28:02.941Z,5.90
2019-01-18T07:29:02.916Z,8.90
2019-01-18T07:30:02.975Z,6.60
2019-01-18T07:31:02.905Z,5.60
2019-01-18T07:32:02.906Z,3.20
2019-01-18T07:33:02.909Z,8.20
2019-01-18T07:34:02.870Z,8.40
2019-01-18T07:35:02.854Z,6.20
2019-01-18T07:36:02.863Z,6.10
2019-01-18T07:37:02.841Z,4.90
2019-01-18T07:38:02.830Z,5.60
2019-01-18T07:39:02.897Z,6.70
2019-01-18T07:40:03.139Z,8.80
2019-01-18T07:41:02.804Z,4.50
2019-01-18T07:42:02.838Z,5.70
2019-01-18T07:43:02.780Z,6.70
2019-01-18T07:44:02.766Z,6.90
2019-01-18T07:45:02.767Z,8.00
2019-01-18T07:46:02.748Z,9.40
2019-01-18T07:47:02.860Z,4.10
2019-01-18T07:48:02.735Z,5.80
2019-01-18T07:49:02.792Z,7.00
2019-01-18T07:50:02.697Z,6.30
2019-01-18T07:51:02.730Z,6.80
2019-01-18T07:52:02.674Z,7.30
2019-01-18T07:53:02.678Z,4.70
2019-01-18T07:54:02.670Z,6.10
2019-01-18T07:55:02.677Z,5.40
2019-01-18T07:56:02.703Z,8.10
2019-01-18T07:57:02.637Z,6.10
2019-01-18T07:58:02.682Z,6.00
2019-01-18T07:59:03.632Z,5.30
2019-01-18T08:00:02.673Z,4.60
2019-01-18T08:01:02.604Z,3.90
2019-01-18T08:02:02.607Z,5.90
2019-01-18T08:03:02.656Z,6.80
2019-01-18T08:04:02.554Z,7.20
2019-01-18T08:05:02.537Z,4.00
2019-01-18T08:06:03.145Z,5.70
2019-01-18T08:07:02.630Z,8.90
2019-01-18T08:08:03.183Z,7.80
2019-01-18T08:09:02.549Z,8.10
2019-01-18T08:10:02.472Z,5.20
2019-01-18T08:11:02.480Z,5.00
2019-01-18T08:12:02.495Z,11.40
2019-01-18T08:13:02.446Z,4.60
2019-01-18T08:14:02.442Z,8.70
2019-01-18T08:15:02.471Z,4.20
2019-01-18T08:16:02.434Z,4.50
2019-01-18T08:17:02.456Z,3.00
2019-01-18T08:18:02.442Z,5.40
2019-01-18T08:19:02.379Z,4.40
2019-01-18T08:20:02.474Z,6.30
2019-01-18T08:21:02.415Z,4.20
2019-01-18T08:22:02.370Z,5.50
2019-01-18T08:23:02.347Z,4.20
2019-01-18T08:24:02.342Z,6.40
2019-01-18T08:25:02.390Z,5.30
2019-01-18T08:26:02.316Z,7.80
2019-01-18T08:27:02.310Z,11.50
2019-01-18T08:28:02.331Z,12.20
2019-01-18T08:29:02.937Z,9.50
2019-01-18T08:30:02.283Z,8.80
2019-01-18T08:31:02.250Z,7.70
2019-01-18T08:32:02.314Z,7.20
2019-01-18T08:33:02.313Z,7.90
2019-01-18T08:34:02.249Z,4.60
2019-01-18T08:35:02.266Z,5.20
2019-01-18T08:36:02.314Z,6.70
2019-01-18T08:37:02.239Z,5.20
2019-01-18T08:38:02.192Z,6.70
2019-01-18T08:39:02.193Z,6.10
2019-01-18T08:40:02.162Z,5.30
2019-01-18T08:41:02.178Z,5.70
2019-01-18T08:42:02.156Z,5.80
2019-01-18T08:43:02.194Z,7.60
2019-01-18T08:44:02.117Z,10.20
2019-01-18T08:45:02.133Z,6.70
2019-01-18T08:46:02.124Z,12.20
2019-01-18T08:47:02.145Z,5.80
2019-01-18T08:48:02.067Z,6.80
2019-01-18T08:49:02.065Z,9.70
2019-01-18T08:50:02.048Z,11.70
2019-01-18T08:51:02.043Z,6.20
2019-01-18T08:52:02.044Z,5.80
2019-01-18T08:53:02.064Z,11.60
2019-01-18T08:54:02.003Z,9.70
2019-01-18T08:55:02.154Z,6.80
2019-01-18T08:56:02.015Z,10.50
2019-01-18T08:57:01.988Z,11.70
2019-01-18T08:58:01.991Z,7.40
2019-01-18T08:59:01.942Z,7.60
2019-01-18T09:00:02.949Z,5.50
2019-01-18T09:01:01.990Z,12.90
2019-01-18T09:02:01.925Z,6.80
2019-01-18T09:03:01.909Z,9.20
2019-01-18T09:04:01.914Z,11.80
2019-01-18T09:05:01.913Z,9.00
2019-01-18T09:06:01.876Z,5.30
2019-01-18T09:07:01.858Z,6.70
2019-01-18T09:08:01.864Z,7.30
2019-01-18T09:09:02.159Z,6.10
2019-01-18T09:10:01.873Z,9.90
2019-01-18T09:11:01.829Z,10.10
2019-01-18T09:12:01.920Z,7.40
2019-01-18T09:13:01.829Z,9.80
2019-01-18T09:14:01.796Z,9.20
2019-01-18T09:15:01.783Z,7.70
2019-01-18T09:16:01.826Z,14.00
2019-01-18T09:17:01.758Z,5.60
2019-01-18T09:18:01.758Z,7.80
2019-01-18T09:19:03.825Z,10.10
2019-01-18T09:20:01.841Z,7.50
2019-01-18T09:21:03.983Z,8.50
2019-01-18T09:22:01.719Z,7.30
2019-01-18T09:23:01.728Z,8.60
2019-01-18T09:24:01.706Z,4.00
2019-01-18T09:25:01.700Z,8.20
2019-01-18T09:26:01.707Z,8.00
2019-01-18T09:27:01.635Z,11.70
2019-01-18T09:28:01.646Z,6.60
2019-01-18T09:29:01.627Z,9.30
2019-01-18T09:30:01.616Z,7.60
2019-01-18T09:31:01.617Z,5.70
2019-01-18T09:32:01.709Z,5.80
2019-01-18T09:33:01.604Z,6.30
2019-01-18T09:34:02.775Z,4.30
2019-01-18T09:35:01.565Z,8.00
2019-01-18T09:36:01.544Z,8.00
2019-01-18T09:37:01.576Z,8.40
2019-01-18T09:38:01.531Z,12.60
2019-01-18T09:39:01.518Z,6.80
2019-01-18T09:40:01.523Z,12.20
2019-01-18T09:41:01.514Z,11.10
2019-01-18T09:42:01.486Z,8.00
2019-01-18T09:43:01.496Z,12.50
2019-01-18T09:44:01.498Z,9.70
2019-01-18T09:45:01.476Z,9.60
2019-01-18T09:46:01.432Z,13.40
2019-01-18T09:47:01.422Z,9.30
2019-01-18T09:48:01.474Z,7.00
2019-01-18T09:49:01.413Z,10.70
2019-01-18T09:50:01.418Z,10.10
2019-01-18T09:51:01.393Z,9.80
2019-01-18T09:52:01.367Z,11.40
2019-01-18T09:53:01.421Z,12.90
2019-01-18T09:54:01.443Z,7.60
2019-01-18T09:55:01.330Z,7.90
2019-01-18T09:56:01.354Z,9.10
2019-01-18T09:57:01.317Z,8.70
2019-01-18T09:58:01.340Z,11.00
2019-01-18T09:59:01.289Z,9.40
2019-01-18T10:00:01.301Z,7.60
2019-01-18T10:01:02.873Z,12.50
2019-01-18T10:02:01.276Z,9.40
2019-01-18T10:03:01.272Z,11.60
2019-01-18T10:04:01.248Z,8.80
2019-01-18T10:05:01.222Z,10.60
2019-01-18T10:06:01.218Z,10.50
2019-01-18T10:07:01.196Z,8.50
2019-01-18T10:08:01.282Z,13.20
2019-01-18T10:09:01.177Z,8.80
2019-01-18T10:10:01.177Z,8.10
2019-01-18T10:11:01.153Z,6.90
2019-01-18T10:12:01.182Z,9.60
2019-01-18T10:13:01.154Z,6.60
2019-01-18T10:14:01.138Z,9.60
2019-01-18T10:15:01.123Z,8.10
2019-01-18T10:16:01.271Z,10.20
2019-01-18T10:17:01.097Z,8.10
2019-01-18T10:18:01.136Z,8.40
2019-01-18T10:19:01.092Z,11.90
2019-01-18T10:20:01.055Z,9.20
2019-01-18T10:21:01.049Z,11.80
2019-01-18T10:22:01.034Z,6.20
2019-01-18T10:23:01.042Z,8.90
2019-01-18T10:24:01.018Z,9.20
2019-01-18T10:25:01.632Z,5.40
2019-01-18T10:26:01.003Z,11.80
2019-01-18T10:27:00.982Z,8.80
2019-01-18T10:28:00.984Z,7.80
2019-01-18T10:29:00.975Z,5.50
2019-01-18T10:30:00.981Z,6.70
2019-01-18T10:31:00.968Z,10.90
2019-01-18T10:32:00.934Z,13.00
2019-01-18T10:33:00.930Z,11.20
2019-01-18T10:34:05.149Z,8.50
2019-01-18T10:35:00.886Z,10.90
2019-01-18T10:36:00.888Z,12.00
2019-01-18T10:37:00.903Z,10.30
2019-01-18T10:38:00.874Z,11.50
2019-01-18T10:39:00.863Z,13.40
2019-01-18T10:40:00.844Z,16.00
2019-01-18T10:41:00.830Z,18.00
2019-01-18T10:42:00.819Z,11.70
2019-01-18T10:43:00.860Z,13.60
2019-01-18T10:44:05.935Z,9.50
2019-01-18T10:45:00.952Z,13.40
2019-01-18T10:46:00.768Z,8.40
2019-01-18T10:47:00.757Z,13.10
2019-01-18T10:48:01.807Z,13.80
2019-01-18T10:49:00.748Z,13.20
2019-01-18T10:50:01.047Z,14.10
2019-01-18T10:51:00.706Z,10.00
2019-01-18T10:52:00.713Z,8.50
2019-01-18T10:53:01.110Z,12.40
2019-01-18T10:54:00.698Z,8.60
2019-01-18T10:55:00.957Z,12.70
2019-01-18T10:56:00.710Z,11.50
2019-01-18T10:57:00.653Z,6.60
2019-01-18T10:58:00.664Z,11.00
2019-01-18T10:59:00.643Z,11.40
2019-01-18T11:00:00.632Z,8.40
2019-01-18T11:01:02.293Z,7.20
2019-01-18T11:02:06.938Z,8.10
2019-01-18T11:03:00.610Z,8.90
2019-01-18T11:04:00.668Z,11.90
2019-01-18T11:05:00.617Z,7.60
2019-01-18T11:06:00.633Z,10.20
2019-01-18T11:07:00.550Z,9.40
2019-01-18T11:08:00.524Z,13.30
2019-01-18T11:09:01.448Z,12.20
2019-01-18T11:10:00.531Z,10.40
2019-01-18T11:11:00.494Z,10.50
2019-01-18T11:12:00.474Z,8.50
2019-01-18T11:13:00.477Z,9.50
2019-01-18T11:14:00.492Z,11.20
2019-01-18T11:15:00.452Z,12.50
2019-01-18T11:16:05.062Z,11.10
2019-01-18T11:17:00.439Z,9.30
2019-01-18T11:18:00.429Z,11.60
2019-01-18T11:19:00.434Z,14.40
2019-01-18T11:20:00.405Z,13.80
2019-01-18T11:21:00.415Z,13.90
2019-01-18T11:22:00.410Z,12.60
2019-01-18T11:23:00.359Z,13.30
2019-01-18T11:24:00.368Z,13.30
2019-01-18T11:25:00.400Z,12.50
2019-01-18T11:26:00.331Z,13.60
2019-01-18T11:27:00.311Z,12.60
2019-01-18T11:28:00.304Z,11.20
2019-01-18T11:29:00.342Z,14.50
2019-01-18T11:30:00.297Z,11.20
2019-01-18T11:31:00.283Z,12.30
2019-01-18T11:32:00.278Z,16.10
2019-01-18T11:33:00.249Z,13.60
2019-01-18T11:34:00.259Z,11.70
2019-01-18T11:35:00.248Z,15.10
2019-01-18T11:36:00.230Z,16.60
2019-01-18T11:37:00.226Z,15.30
2019-01-18T11:38:00.198Z,16.30
2019-01-18T11:39:00.234Z,20.60
2019-01-18T11:40:00.239Z,19.30
2019-01-18T11:41:00.177Z,14.20
2019-01-18T11:42:00.171Z,13.00
2019-01-18T11:43:00.155Z,12.80
2019-01-18T11:44:00.141Z,12.40
2019-01-18T11:45:00.173Z,11.10
2019-01-18T11:46:00.117Z,12.80
2019-01-18T11:47:00.101Z,10.60
2019-01-18T11:48:00.086Z,11.50
2019-01-18T11:49:00.081Z,12.20
2019-01-18T11:50:00.227Z,11.60
2019-01-18T11:51:00.077Z,17.10
2019-01-18T11:52:00.042Z,11.50
2019-01-18T11:53:00.077Z,10.60
2019-01-18T11:54:00.710Z,14.70
2019-01-18T11:55:00.085Z,11.90
2019-01-18T11:56:00.005Z,11.50
2019-01-18T11:57:00.008Z,9.60
2019-01-18T11:57:59.996Z,10.00
2019-01-18T11:58:59.976Z,10.10
2019-01-18T11:59:59.999Z,14.90
2019-01-18T12:00:59.956Z,11.90
2019-01-18T12:01:59.952Z,10.00
2019-01-18T12:02:59.936Z,13.00
2019-01-18T12:03:59.900Z,11.20
2019-01-18T12:04:59.904Z,12.30
2019-01-18T12:05:59.881Z,12.80
2019-01-18T12:06:59.888Z,10.30
2019-01-18T12:07:59.954Z,9.50
2019-01-18T12:08:59.865Z,12.00
2019-01-18T12:09:59.866Z,12.70
2019-01-18T12:10:59.850Z,7.60
2019-01-18T12:11:59.815Z,10.00
2019-01-18T12:12:59.856Z,11.70
2019-01-18T12:14:02.866Z,8.90
2019-01-18T12:14:59.895Z,8.20
2019-01-18T12:15:59.790Z,10.00
2019-01-18T12:16:59.784Z,9.90
2019-01-18T12:18:01.393Z,14.40
2019-01-18T12:18:59.751Z,9.70
2019-01-18T12:19:59.753Z,11.50
2019-01-18T12:20:59.848Z,11.30
2019-01-18T12:21:59.731Z,9.10
2019-01-18T12:22:59.752Z,16.80
2019-01-18T12:24:00.504Z,13.00
2019-01-18T12:24:59.702Z,8.30
2019-01-18T12:25:59.675Z,10.10
2019-01-18T12:26:59.662Z,11.50
2019-01-18T12:27:59.645Z,11.50
2019-01-18T12:28:59.651Z,12.10
2019-01-18T12:29:59.642Z,11.20
2019-01-18T12:30:59.630Z,9.30
2019-01-18T12:31:59.615Z,13.50
2019-01-18T12:33:00.215Z,8.70
2019-01-18T12:33:59.596Z,8.20
2019-01-18T12:34:59.595Z,10.40
2019-01-18T12:35:59.585Z,15.00
2019-01-18T12:36:59.583Z,12.20
2019-01-18T12:37:59.589Z,9.80
2019-01-18T12:38:59.528Z,10.00
2019-01-18T12:40:00.597Z,13.50
2019-01-18T12:40:59.507Z,11.80
2019-01-18T12:41:59.500Z,12.70
2019-01-18T12:42:59.502Z,13.50
2019-01-18T12:43:59.520Z,20.00
2019-01-18T12:44:59.480Z,11.40
2019-01-18T12:45:59.469Z,10.10
2019-01-18T12:46:59.449Z,9.50
2019-01-18T12:47:59.429Z,9.10
2019-01-18T12:48:59.427Z,8.70
2019-01-18T12:49:59.464Z,9.80
2019-01-18T12:50:59.412Z,14.60
2019-01-18T12:51:59.402Z,10.20
2019-01-18T12:52:59.377Z,10.20
2019-01-18T12:53:59.368Z,13.20
2019-01-18T12:54:59.365Z,11.70
2019-01-18T12:56:01.837Z,10.90
2019-01-18T12:56:59.356Z,8.60
2019-01-18T12:57:59.338Z,8.30
2019-01-18T12:58:59.314Z,11.20
2019-01-18T12:59:59.317Z,10.00
2019-01-18T13:00:59.290Z,11.00
2019-01-18T13:01:59.285Z,10.40
2019-01-18T13:02:59.273Z,14.10
2019-01-18T13:03:59.255Z,9.10
2019-01-18T13:04:59.270Z,13.50
2019-01-18T13:05:59.287Z,12.20
2019-01-18T13:06:59.227Z,9.80
2019-01-18T13:07:59.208Z,11.60
2019-01-18T13:09:00.137Z,10.90
2019-01-18T13:09:59.215Z,11.10
2019-01-18T13:10:59.273Z,12.40
2019-01-18T13:11:59.166Z,16.40